Time;durP1;ratioP1;P1;durP2;ratioP2;P2;SDS_P1;SDS_P2;PMS_P1;PMS_P2;Temp;Humidity;BMP_temperature;BMP_pressure;BME280_temperature;BME280_humidity;BME280_pressure;Samples;Min_cycle;Max_cycle;Signal;HPM_P1;HPM_P2
2021/10/08 00:00:42;;;;;;;4.78;2.42;;;;;;;14.06;72.15;100359.47;5050852;28;20380;-39
2021/10/08 00:03:07;;;;;;;6.18;2.70;;;;;;;14.52;70.81;100354.97;5050900;28;20063;-39
2021/10/08 00:05:33;;;;;;;3.35;2.17;;;;;;;14.45;70.25;100350.47;5050831;28;20405;-38
2021/10/08 00:07:59;;;;;;;5.72;2.75;;;;;;;14.12;71.45;100358.63;5050898;28;20082;-39
2021/10/08 00:10:25;;;;;;;3.58;2.60;;;;;;;14.30;71.25;100349.94;5050720;28;20025;-39
2021/10/08 00:12:50;;;;;;;7.95;2.40;;;;;;;14.46;70.47;100352.09;5050781;28;20025;-39
2021/10/08 00:15:16;;;;;;;6.30;2.55;;;;;;;14.22;71.04;100352.81;5050689;28;20079;-39
2021/10/08 00:17:41;;;;;;;5.38;2.95;;;;;;;14.04;71.78;100348.16;5050697;28;20029;-39
2021/10/08 00:20:07;;;;;;;6.20;3.00;;;;;;;14.16;71.62;100346.47;5050512;28;20028;-38
2021/10/08 00:22:33;;;;;;;9.88;3.17;;;;;;;14.17;70.95;100344.63;5050581;28;20458;-38
2021/10/08 00:24:58;;;;;;;5.85;2.92;;;;;;;13.73;72.63;100333.66;5050585;28;20029;-38
2021/10/08 00:27:24;;;;;;;5.43;3.20;;;;;;;13.54;74.20;100332.66;5050511;28;20094;-38
2021/10/08 00:29:49;;;;;;;4.95;2.90;;;;;;;13.46;73.88;100336.38;5050365;28;20071;-38
2021/10/08 00:32:14;;;;;;;8.32;3.30;;;;;;;13.25;75.58;100331.22;5050486;28;20453;-38
2021/10/08 00:34:40;;;;;;;6.80;3.45;;;;;;;13.69;73.99;100333.25;5050383;28;20032;-38
2021/10/08 00:37:05;;;;;;;6.32;3.20;;;;;;;13.82;72.36;100327.06;5050565;28;20028;-39
2021/10/08 00:39:31;;;;;;;6.15;3.28;;;;;;;13.55;74.25;100331.63;5050695;28;20029;-38
2021/10/08 00:41:56;;;;;;;8.10;3.45;;;;;;;13.52;73.78;100310.66;5050447;28;20021;-38
2021/10/08 00:44:22;;;;;;;6.75;3.47;;;;;;;13.64;73.88;100321.53;5050240;28;20043;-39
2021/10/08 00:46:47;;;;;;;6.82;3.28;;;;;;;13.28;75.72;100318.25;5050209;28;20034;-39
2021/10/08 00:49:12;;;;;;;6.72;3.15;;;;;;;13.02;76.83;100315.59;5049820;28;20044;-38
2021/10/08 00:51:38;;;;;;;8.20;3.55;;;;;;;13.13;76.76;100312.31;5049798;28;20040;-38
2021/10/08 00:54:03;;;;;;;6.53;3.45;;;;;;;12.99;76.60;100321.38;5049619;28;20017;-38
2021/10/08 00:56:29;;;;;;;5.13;3.13;;;;;;;12.83;77.22;100315.41;5049611;28;20021;-38
2021/10/08 00:58:54;;;;;;;4.95;3.38;;;;;;;13.04;76.88;100308.19;5032018;28;20506;-38
2021/10/08 01:01:20;;;;;;;7.75;3.60;;;;;;;13.11;76.27;100309.03;5049901;28;20477;-38
2021/10/08 01:03:45;;;;;;;5.55;3.58;;;;;;;13.43;74.82;100311.91;5050069;28;20395;-38
2021/10/08 01:06:11;;;;;;;9.70;3.80;;;;;;;13.39;75.71;100313.38;5049914;28;20033;-38
2021/10/08 01:08:37;;;;;;;5.63;3.33;;;;;;;13.39;74.46;100316.03;5050703;28;20032;-39
2021/10/08 01:11:02;;;;;;;8.77;3.95;;;;;;;13.72;73.87;100309.78;5050691;28;20021;-39
2021/10/08 01:13:28;;;;;;;7.00;3.17;;;;;;;13.26;75.57;100323.00;5050604;28;20093;-39
2021/10/08 01:15:54;;;;;;;8.48;3.75;;;;;;;13.33;75.34;100306.16;5050801;28;20013;-39
2021/10/08 01:18:19;;;;;;;6.82;3.38;;;;;;;13.62;74.44;100311.03;5050709;28;20453;-39
2021/10/08 01:20:45;;;;;;;6.63;3.55;;;;;;;13.36;74.93;100305.75;5050746;28;20032;-39
2021/10/08 01:23:10;;;;;;;6.82;3.45;;;;;;;13.02;76.04;100300.41;5050643;28;20473;-39
2021/10/08 01:25:36;;;;;;;7.60;3.92;;;;;;;12.93;76.37;100298.13;5050002;28;20053;-39
2021/10/08 01:28:03;;;;;;;6.53;3.40;;;;;;;12.95;76.03;100293.44;5050649;28;20025;-39
2021/10/08 01:30:28;;;;;;;5.88;3.33;;;;;;;12.87;76.57;100297.94;5049929;28;20074;-39
2021/10/08 01:32:54;;;;;;;5.15;3.38;;;;;;;13.13;75.70;100290.13;5050441;28;20048;-38
2021/10/08 01:35:20;;;;;;;8.23;3.72;;;;;;;13.00;75.87;100288.28;5050205;28;20025;-39
2021/10/08 01:37:45;;;;;;;7.50;4.28;;;;;;;12.77;76.68;100286.81;5050859;28;20048;-37
2021/10/08 01:40:11;;;;;;;7.03;4.57;;;;;;;12.63;77.58;100287.84;5050378;28;20025;-37
2021/10/08 01:42:37;;;;;;;9.32;5.22;;;;;;;13.01;75.70;100289.94;5049179;28;20052;-37
2021/10/08 01:45:03;;;;;;;13.00;7.28;;;;;;;13.24;74.89;100290.31;5049990;28;20566;-37
2021/10/08 01:47:28;;;;;;;13.27;8.25;;;;;;;13.01;74.81;100292.59;5050788;28;20035;-38
2021/10/08 01:49:54;;;;;;;15.52;8.65;;;;;;;13.06;75.09;100301.66;5050398;28;20025;-37
2021/10/08 01:52:20;;;;;;;17.90;10.23;;;;;;;13.07;74.63;100295.25;5050107;28;20067;-37
2021/10/08 01:54:45;;;;;;;16.75;10.85;;;;;;;13.18;74.44;100291.16;5050349;28;20021;-37
2021/10/08 01:57:11;;;;;;;17.42;11.07;;;;;;;13.20;74.84;100299.78;5050033;28;20419;-37
2021/10/08 01:59:36;;;;;;;21.10;12.55;;;;;;;13.41;74.02;100290.72;5049892;28;20028;-37
2021/10/08 02:02:02;;;;;;;21.23;12.27;;;;;;;13.07;74.90;100276.56;5050441;28;20029;-37
2021/10/08 02:04:27;;;;;;;21.55;12.70;;;;;;;13.26;73.81;100285.56;5049893;28;20511;-37
2021/10/08 02:06:53;;;;;;;23.10;13.45;;;;;;;13.33;73.79;100282.09;5050019;28;20469;-37
2021/10/08 02:09:18;;;;;;;19.65;12.65;;;;;;;13.19;73.88;100295.44;5049956;28;20029;-37
2021/10/08 02:11:44;;;;;;;20.27;12.00;;;;;;;13.13;74.33;100290.13;5050039;28;20029;-37
2021/10/08 02:14:09;;;;;;;18.73;11.57;;;;;;;12.75;76.08;100288.06;5049840;28;20103;-39
2021/10/08 02:16:35;;;;;;;20.10;11.73;;;;;;;13.02;75.29;100294.22;5050056;28;20021;-37
2021/10/08 02:19:00;;;;;;;20.27;11.52;;;;;;;13.14;74.45;100287.25;5049959;28;20055;-37
2021/10/08 02:21:25;;;;;;;17.05;10.27;;;;;;;13.05;74.73;100289.28;5050087;28;20374;-38
2021/10/08 02:23:51;;;;;;;14.18;9.55;;;;;;;13.01;74.49;100289.94;5053286;28;20105;-38
2021/10/08 02:26:17;;;;;;;17.65;9.82;;;;;;;13.25;74.61;100286.63;5053731;28;20032;-38
2021/10/08 02:28:42;;;;;;;13.07;8.48;;;;;;;13.15;73.95;100280.84;5053051;28;20029;-36
2021/10/08 02:31:08;;;;;;;12.93;8.00;;;;;;;12.97;75.47;100278.00;5052823;28;20146;-37
2021/10/08 02:33:34;;;;;;;12.00;7.30;;;;;;;13.14;74.42;100292.59;5053109;28;20380;-37
2021/10/08 02:36:01;;;;;;;10.13;7.10;;;;;;;13.30;73.81;100276.13;5053028;28;20025;-37
2021/10/08 02:38:27;;;;;;;9.80;6.20;;;;;;;13.26;73.81;100285.56;5052943;28;20056;-37
2021/10/08 02:40:52;;;;;;;13.02;6.30;;;;;;;13.39;73.87;100273.25;5053020;28;20021;-38
2021/10/08 02:43:18;;;;;;;9.80;5.50;;;;;;;13.11;73.58;100275.09;5052734;28;20083;-38
2021/10/08 02:45:43;;;;;;;7.65;5.00;;;;;;;13.01;74.60;100277.38;5052473;28;20378;-37
2021/10/08 02:48:09;;;;;;;6.80;5.07;;;;;;;13.33;73.97;100274.91;5052722;28;20029;-36
2021/10/08 02:50:34;;;;;;;7.70;4.13;;;;;;;12.93;74.65;100280.28;5052772;28;20056;-37
2021/10/08 02:53:00;;;;;;;7.03;4.30;;;;;;;12.81;75.92;100284.56;5060942;28;20079;-36
2021/10/08 02:55:25;;;;;;;6.93;3.47;;;;;;;12.66;76.07;100276.75;5072340;28;20029;-37
2021/10/08 02:57:51;;;;;;;5.38;3.00;;;;;;;12.75;74.93;100304.09;5072427;28;20028;-39
2021/10/08 03:00:16;;;;;;;5.40;3.10;;;;;;;12.66;76.54;100284.75;5072616;28;20083;-37
2021/10/08 03:02:42;;;;;;;4.43;2.95;;;;;;;12.84;75.07;100289.50;5070973;28;20036;-37
2021/10/08 03:05:08;;;;;;;7.38;4.55;;;;;;;12.48;76.87;100288.84;5072198;28;20036;-36
2021/10/08 03:07:33;;;;;;;12.93;7.40;;;;;;;13.00;74.60;100282.94;5071655;28;20039;-37
2021/10/08 03:09:59;;;;;;;4.43;3.00;;;;;;;13.47;73.11;100291.75;5071878;28;20036;-36
2021/10/08 03:12:24;;;;;;;4.10;2.75;;;;;;;13.06;73.84;100287.44;5071958;28;20464;-37
2021/10/08 03:14:50;;;;;;;5.13;2.72;;;;;;;12.86;74.42;100290.94;5072588;28;20189;-37
2021/10/08 03:17:15;;;;;;;4.53;2.60;;;;;;;12.76;75.08;100289.72;5072483;28;20024;-37
2021/10/08 03:19:41;;;;;;;3.75;2.70;;;;;;;12.82;74.91;100286.22;5072509;28;20106;-37
2021/10/08 03:22:06;;;;;;;4.43;3.03;;;;;;;13.00;74.78;100296.28;5072454;28;20028;-37
2021/10/08 03:24:32;;;;;;;4.40;3.00;;;;;;;12.99;74.39;100302.66;5072174;28;20024;-37
2021/10/08 03:26:57;;;;;;;5.72;3.05;;;;;;;12.86;75.56;100298.94;5072109;28;20101;-37
2021/10/08 03:29:22;;;;;;;6.15;3.42;;;;;;;13.11;73.64;100298.34;5072101;28;20043;-38
2021/10/08 03:31:48;;;;;;;5.65;3.00;;;;;;;12.98;73.93;100296.47;5072083;28;20389;-37
2021/10/08 03:34:13;;;;;;;8.77;3.40;;;;;;;13.32;72.98;100291.16;5057469;28;20025;-37
2021/10/08 03:39:13;;;;;;;7.70;3.30;;;;;;;13.37;73.09;100300.19;5051835;28;20033;-37
2021/10/08 03:41:40;;;;;;;5.00;2.95;;;;;;;12.78;74.98;100290.34;5051521;28;20047;-37
2021/10/08 03:44:06;;;;;;;4.10;3.20;;;;;;;12.80;75.30;100283.75;5051648;28;20062;-37
2021/10/08 03:46:39;;;;;;;5.75;3.28;;;;;;;13.03;74.25;100288.69;5051550;28;20361;-37
2021/10/08 03:51:33;;;;;;;4.07;3.20;;;;;;;12.66;76.59;100284.75;5051989;28;20060;-37
2021/10/08 03:53:59;;;;;;;4.57;2.72;;;;;;;12.57;76.86;100269.97;5051788;28;20108;-37
2021/10/08 03:56:25;;;;;;;5.00;2.97;;;;;;;12.86;75.78;100274.91;5051641;28;20180;-37
2021/10/08 03:58:50;;;;;;;5.78;3.00;;;;;;;12.94;75.41;100287.25;5051696;28;20389;-37
2021/10/08 04:01:16;;;;;;;4.03;2.50;;;;;;;13.29;74.00;100290.50;5050992;28;20037;-38
2021/10/08 04:03:41;;;;;;;3.92;2.50;;;;;;;12.60;77.49;100299.75;5051129;28;20186;-38
2021/10/08 04:06:06;;;;;;;5.40;2.58;;;;;;;12.86;76.67;100298.94;5050755;28;20082;-39
2021/10/08 04:08:32;;;;;;;4.28;2.55;;;;;;;12.94;75.84;100313.13;5050746;28;20028;-38
2021/10/08 04:10:57;;;;;;;4.45;2.65;;;;;;;12.88;75.85;100307.59;5050830;28;20033;-38
2021/10/08 04:13:23;;;;;;;3.95;2.20;;;;;;;12.99;75.44;100302.66;5050640;28;20032;-38
2021/10/08 04:15:48;;;;;;;4.72;2.60;;;;;;;13.52;74.93;100307.16;5050843;28;20499;-38
2021/10/08 04:18:14;;;;;;;3.38;2.30;;;;;;;13.35;73.85;100312.13;5050674;28;20370;-38
2021/10/08 04:20:39;;;;;;;5.15;2.30;;;;;;;12.82;75.92;100303.06;5050646;28;20025;-38
2021/10/08 04:23:05;;;;;;;6.60;2.20;;;;;;;12.73;76.02;100314.97;5050229;28;20029;-37
2021/10/08 04:25:31;;;;;;;2.85;2.17;;;;;;;12.68;76.84;100320.94;5050220;28;20481;-38
2021/10/08 04:27:56;;;;;;;3.35;2.10;;;;;;;12.46;77.75;100322.94;5049853;28;20025;-37
2021/10/08 04:30:21;;;;;;;3.13;2.40;;;;;;;13.08;75.75;100322.81;5036728;28;20543;-38
2021/10/08 04:32:48;;;;;;;4.75;2.60;;;;;;;13.29;75.51;100322.59;5050634;28;20060;-38
2021/10/08 04:35:13;;;;;;;4.70;2.65;;;;;;;13.58;74.06;100320.53;5050189;28;20079;-38
2021/10/08 04:37:39;;;;;;;6.95;2.33;;;;;;;13.46;73.94;100314.16;5050041;28;20024;-38
2021/10/08 04:40:05;;;;;;;2.97;2.25;;;;;;;13.24;74.43;100319.72;5049569;28;20029;-38
2021/10/08 04:42:31;;;;;;;3.75;2.35;;;;;;;13.61;73.40;100321.94;5049367;28;20481;-38
2021/10/08 04:44:57;;;;;;;6.07;2.45;;;;;;;12.95;75.55;100320.16;5048581;28;20028;-38
2021/10/08 04:47:22;;;;;;;5.28;2.20;;;;;;;12.63;76.91;100319.91;5048173;28;20021;-38
2021/10/08 04:49:47;;;;;;;7.78;2.60;;;;;;;12.69;76.82;100317.22;5047241;28;20365;-39
2021/10/08 04:52:13;;;;;;;4.97;2.60;;;;;;;12.08;79.72;100306.59;5046675;28;20017;-39
2021/10/08 04:54:38;;;;;;;4.70;2.25;;;;;;;11.98;79.94;100319.50;5046864;28;20025;-38
2021/10/08 04:57:05;;;;;;;3.45;2.45;;;;;;;12.36;78.31;100319.84;5047635;28;20060;-38
2021/10/08 04:59:30;;;;;;;4.55;2.53;;;;;;;12.82;76.13;100321.75;5047457;28;20438;-38
2021/10/08 05:01:55;;;;;;;5.97;2.30;;;;;;;12.55;76.84;100334.25;5047451;28;20036;-37
2021/10/08 05:04:21;;;;;;;7.00;3.40;;;;;;;12.11;78.74;100339.03;5048265;28;20507;-38
2021/10/08 05:06:46;;;;;;;5.07;2.60;;;;;;;12.16;77.79;100322.41;5047681;28;20027;-37
2021/10/08 05:09:12;;;;;;;4.38;2.60;;;;;;;11.92;79.14;100327.25;5048817;28;20029;-37
2021/10/08 05:11:37;;;;;;;5.57;2.70;;;;;;;12.20;78.55;100322.84;5048975;28;20029;-38
2021/10/08 05:14:03;;;;;;;8.95;2.67;;;;;;;11.72;79.79;100324.44;5049245;28;20365;-39
2021/10/08 05:16:30;;;;;;;6.57;2.63;;;;;;;11.64;80.46;100326.47;5049306;28;20033;-38
2021/10/08 05:18:55;;;;;;;5.75;2.67;;;;;;;11.37;81.34;100346.78;5049474;28;20029;-38
2021/10/08 05:21:20;;;;;;;9.38;3.15;;;;;;;11.39;81.62;100328.78;5049336;28;20031;-38
2021/10/08 05:23:46;;;;;;;11.10;2.78;;;;;;;11.13;83.22;100333.69;5049443;28;20029;-38
2021/10/08 05:26:11;;;;;;;10.63;3.10;;;;;;;11.34;81.71;100334.66;5048809;28;20118;-38
2021/10/08 05:28:37;;;;;;;6.78;3.03;;;;;;;11.66;80.73;100333.22;5049046;28;20047;-38
2021/10/08 05:31:02;;;;;;;4.47;2.60;;;;;;;11.54;80.49;100338.28;5049272;28;20429;-38
2021/10/08 05:33:28;;;;;;;13.90;6.43;;;;;;;11.60;80.90;100330.53;5049497;28;20025;-38
2021/10/08 05:35:53;;;;;;;7.30;2.85;;;;;;;11.50;79.27;100339.72;5049525;28;20036;-38
2021/10/08 05:38:20;;;;;;;5.78;2.80;;;;;;;11.50;81.02;100347.69;5049672;28;20032;-38
2021/10/08 05:40:52;;;;;;;5.45;3.28;;;;;;;11.61;80.11;100325.00;5049141;28;20179;-38
2021/10/08 05:43:18;;;;;;;5.95;2.65;;;;;;;11.59;80.29;100326.22;5049270;28;20087;-39
2021/10/08 05:45:43;;;;;;;6.28;2.85;;;;;;;11.65;79.97;100342.25;5049239;28;20032;-36
2021/10/08 05:48:09;;;;;;;4.90;2.53;;;;;;;11.65;78.69;100347.59;5049375;28;20021;-36
2021/10/08 05:50:34;;;;;;;6.95;3.15;;;;;;;11.55;79.95;100344.44;5049394;28;20032;-37
2021/10/08 05:53:00;;;;;;;5.32;2.75;;;;;;;11.53;80.11;100346.47;5049136;28;20032;-37
2021/10/08 05:55:26;;;;;;;9.25;3.10;;;;;;;11.36;81.55;100348.63;5049198;28;20381;-39
2021/10/08 05:57:51;;;;;;;7.22;2.90;;;;;;;11.32;80.69;100350.03;5050923;28;20047;-37
2021/10/08 06:00:16;;;;;;;8.00;2.70;;;;;;;11.41;81.21;100334.72;5052078;28;20033;-37
2021/10/08 06:02:42;;;;;;;7.35;2.78;;;;;;;11.38;80.45;100327.09;5053259;28;20461;-37
2021/10/08 06:05:08;;;;;;;7.20;2.70;;;;;;;11.47;80.62;100336.59;5052923;28;20028;-37
2021/10/08 06:07:33;;;;;;;6.78;3.10;;;;;;;11.57;80.05;100313.06;5052883;28;20087;-37
2021/10/08 06:09:58;;;;;;;7.22;2.85;;;;;;;11.71;79.30;100320.16;5052580;28;20453;-37
2021/10/08 06:12:24;;;;;;;9.10;3.80;;;;;;;11.52;80.21;100324.34;5052109;28;20025;-38
2021/10/08 06:14:50;;;;;;;7.53;3.65;;;;;;;11.52;80.86;100332.34;5052330;28;20448;-37
2021/10/08 06:17:15;;;;;;;5.57;2.72;;;;;;;11.47;79.52;100357.94;5052650;28;20031;-38
2021/10/08 06:19:41;;;;;;;7.15;3.20;;;;;;;11.39;80.55;100321.59;5052770;28;20051;-37
2021/10/08 06:22:07;;;;;;;4.40;2.90;;;;;;;11.14;80.28;100302.56;5052158;28;20065;-37
2021/10/08 06:24:32;;;;;;;7.35;3.45;;;;;;;11.27;80.94;100326.63;5052459;28;20104;-39
2021/10/08 06:26:58;;;;;;;6.35;3.00;;;;;;;11.64;80.22;100335.28;5052514;28;20508;-37
2021/10/08 06:29:23;;;;;;;4.80;3.35;;;;;;;11.75;80.44;100328.56;5052031;28;20028;-37
2021/10/08 06:31:49;;;;;;;6.88;3.40;;;;;;;11.87;78.67;100340.31;5052463;28;20029;-37
2021/10/08 06:34:14;;;;;;;8.70;3.95;;;;;;;11.68;79.87;100347.19;5052138;28;20348;-37
2021/10/08 06:36:40;;;;;;;8.55;3.67;;;;;;;12.03;79.58;100341.88;5051969;28;20029;-37
2021/10/08 06:39:05;;;;;;;9.00;3.83;;;;;;;12.04;78.50;100346.19;5051714;28;20029;-38
2021/10/08 06:41:31;;;;;;;7.10;3.53;;;;;;;12.17;78.69;100339.28;5051707;28;20021;-37
2021/10/08 06:43:56;;;;;;;10.07;3.45;;;;;;;11.71;79.58;100338.81;5052244;28;20408;-37
2021/10/08 06:46:22;;;;;;;9.27;3.50;;;;;;;11.62;80.67;100344.50;5051423;28;20025;-37
2021/10/08 06:48:47;;;;;;;7.95;3.33;;;;;;;11.62;80.02;100345.31;5050756;28;20478;-37
2021/10/08 06:51:13;;;;;;;6.95;3.60;;;;;;;11.54;81.10;100350.81;5052605;28;20028;-37
2021/10/08 06:53:38;;;;;;;8.68;3.85;;;;;;;11.80;79.62;100354.63;5065830;28;20518;-37
2021/10/08 06:56:04;;;;;;;8.45;3.70;;;;;;;11.65;81.27;100352.09;5071557;28;20020;-37
2021/10/08 06:58:29;;;;;;;8.13;3.90;;;;;;;12.04;79.67;100356.03;5071736;28;20051;-36
2021/10/08 07:00:55;;;;;;;7.78;3.58;;;;;;;12.31;78.22;100347.09;5072109;28;20473;-38
2021/10/08 07:03:25;;;;;;;9.60;3.95;;;;;;;12.39;77.68;100348.78;5072288;28;20020;-37
2021/10/08 07:05:51;;;;;;;8.68;4.10;;;;;;;12.21;77.90;100354.66;5071653;28;20063;-37
2021/10/08 07:08:16;;;;;;;10.18;4.70;;;;;;;12.40;77.07;100370.97;5071692;28;20024;-36
2021/10/08 07:10:42;;;;;;;14.02;5.82;;;;;;;12.06;77.80;100376.16;5071568;28;20138;-37
2021/10/08 07:13:08;;;;;;;11.60;5.90;;;;;;;11.97;77.75;100356.00;5071405;28;20078;-37
2021/10/08 07:15:34;;;;;;;9.57;5.90;;;;;;;11.70;79.25;100342.47;5071490;28;20017;-37
2021/10/08 07:18:00;;;;;;;14.88;7.38;;;;;;;11.90;78.83;100347.16;5071517;28;20110;-37
2021/10/08 07:20:27;;;;;;;14.65;7.43;;;;;;;12.17;77.60;100347.28;5055712;28;20066;-37
2021/10/08 07:22:53;;;;;;;18.00;8.68;;;;;;;12.20;77.74;100346.88;5051439;28;20074;-37
2021/10/08 07:25:18;;;;;;;14.80;8.25;;;;;;;12.15;76.72;100351.97;5051219;28;20029;-37
2021/10/08 07:27:46;;;;;;;18.02;9.00;;;;;;;12.41;77.76;100367.25;5051647;28;20067;-37
2021/10/08 07:30:11;;;;;;;11.98;6.50;;;;;;;12.24;76.19;100372.13;5051545;28;20044;-38
2021/10/08 07:32:37;;;;;;;13.35;7.00;;;;;;;12.74;74.85;100385.22;5051567;28;20093;-37
2021/10/08 07:35:04;;;;;;;13.65;8.15;;;;;;;12.47;75.00;100387.81;5051562;28;20079;-37
2021/10/08 07:37:29;;;;;;;11.15;6.38;;;;;;;12.70;74.06;100380.28;5052447;28;20032;-37
2021/10/08 07:39:56;;;;;;;11.88;6.18;;;;;;;12.72;74.97;100385.44;5049427;28;20033;-37
2021/10/08 07:42:21;;;;;;;13.90;4.85;;;;;;;12.66;74.82;100376.38;5051402;28;20081;-37
2021/10/08 07:44:48;;;;;;;13.13;5.03;;;;;;;12.81;74.18;100384.22;5051639;28;20024;-37
2021/10/08 07:47:13;;;;;;;12.23;5.18;;;;;;;12.65;74.89;100385.41;5051099;28;20025;-37
2021/10/08 07:49:39;;;;;;;8.18;5.00;;;;;;;13.17;73.21;100385.69;5051161;28;20105;-37
2021/10/08 07:52:05;;;;;;;11.65;5.05;;;;;;;13.29;71.96;100376.06;5050705;28;20020;-37
2021/10/08 07:54:30;;;;;;;11.43;4.85;;;;;;;13.12;72.64;100369.47;5051193;28;20025;-37
2021/10/08 07:56:55;;;;;;;11.73;4.63;;;;;;;13.20;72.54;100374.59;5050492;28;20013;-37
2021/10/08 07:59:21;;;;;;;13.02;5.20;;;;;;;13.34;71.79;100383.47;5050717;28;20021;-37
2021/10/08 08:01:47;;;;;;;12.80;5.30;;;;;;;13.08;72.06;100397.63;5050955;28;20017;-37
2021/10/08 08:04:12;;;;;;;11.25;5.10;;;;;;;12.86;73.24;100389.78;5050949;28;20025;-36
2021/10/08 08:06:38;;;;;;;10.32;4.97;;;;;;;12.75;73.98;100392.22;5050538;28;20033;-35
2021/10/08 08:09:03;;;;;;;8.80;5.28;;;;;;;12.80;73.96;100398.59;5050472;28;20421;-38
2021/10/08 08:11:29;;;;;;;15.05;5.40;;;;;;;12.64;74.00;100396.28;5050788;28;20029;-35
2021/10/08 08:13:55;;;;;;;10.18;4.97;;;;;;;12.56;74.17;100391.13;5049591;28;20449;-36
2021/10/08 08:16:21;;;;;;;12.02;5.65;;;;;;;12.86;72.95;100402.31;5050560;28;20033;-36
2021/10/08 08:18:46;;;;;;;9.43;5.18;;;;;;;13.07;72.74;100399.47;5051109;28;20025;-37
2021/10/08 08:21:12;;;;;;;13.75;5.28;;;;;;;13.24;71.83;100410.56;5050015;28;20444;-52
2021/10/08 08:23:37;;;;;;;13.10;5.32;;;;;;;13.25;71.29;100408.72;5050581;28;20063;-52
2021/10/08 08:26:03;;;;;;;18.65;6.72;;;;;;;12.51;74.88;100402.44;5051011;28;20373;-55
2021/10/08 08:28:28;;;;;;;15.52;8.25;;;;;;;12.42;75.15;100401.75;5050399;28;20029;-52
2021/10/08 08:30:54;;;;;;;13.85;6.20;;;;;;;12.78;73.85;100403.31;5050362;28;20049;-53
2021/10/08 08:33:20;;;;;;;13.38;6.00;;;;;;;12.81;73.30;100392.25;5050975;28;20052;-52
2021/10/08 08:35:45;;;;;;;17.70;5.78;;;;;;;12.69;74.47;100400.00;5050594;28;20416;-53
2021/10/08 08:38:11;;;;;;;12.85;5.90;;;;;;;12.30;75.69;100396.19;5050371;28;20028;-51
2021/10/08 08:40:36;;;;;;;13.27;6.70;;;;;;;12.73;73.97;100391.59;5050463;28;20021;-51
2021/10/08 08:43:02;;;;;;;14.98;7.03;;;;;;;12.69;73.69;100404.53;5049964;28;20472;-52
2021/10/08 08:45:28;;;;;;;17.08;6.35;;;;;;;12.55;74.46;100402.84;5050080;28;20024;-52
2021/10/08 08:48:05;;;;;;;15.60;6.63;;;;;;;12.66;74.36;100396.91;5050191;28;20032;-50
2021/10/08 08:50:31;;;;;;;14.93;7.03;;;;;;;12.93;73.62;100404.97;5050067;28;20449;-52
2021/10/08 08:52:56;;;;;;;18.05;7.18;;;;;;;12.82;73.42;100406.41;5058099;28;20070;-50
2021/10/08 08:55:22;;;;;;;29.55;19.77;;;;;;;12.52;74.74;100409.41;5070145;28;20395;-53
2021/10/08 08:57:47;;;;;;;29.00;19.63;;;;;;;12.17;76.77;100414.78;5070069;28;20481;-53
2021/10/08 09:00:16;;;;;;;28.10;18.75;;;;;;;12.43;76.59;100403.44;5069774;28;20050;-52
2021/10/08 09:02:42;;;;;;;27.30;12.55;;;;;;;12.15;77.31;100370.63;5069724;28;20031;-54
2021/10/08 09:05:18;;;;;;;18.52;10.27;;;;;;;12.00;78.13;100378.81;5069732;28;20028;-53
2021/10/08 09:07:43;;;;;;;20.33;9.30;;;;;;;12.04;78.29;100364.03;5069786;28;20017;-52
2021/10/08 09:10:17;;;;;;;15.27;8.45;;;;;;;12.21;77.70;100377.88;5070040;28;20032;-51
2021/10/08 09:12:43;;;;;;;17.35;8.30;;;;;;;12.21;77.54;100381.34;5069690;28;20025;-52
2021/10/08 09:15:09;;;;;;;19.13;8.88;;;;;;;12.40;76.80;100377.13;5070763;28;20021;-50
2021/10/08 09:17:34;;;;;;;15.63;8.27;;;;;;;12.25;77.55;100389.78;5069922;28;20100;-52
2021/10/08 09:20:07;;;;;;;15.48;8.52;;;;;;;12.62;76.04;100377.81;5070274;28;20492;-52
2021/10/08 09:22:39;;;;;;;20.70;8.55;;;;;;;12.80;75.24;100382.56;5069892;28;20077;-50
2021/10/08 09:25:12;;;;;;;19.60;8.95;;;;;;;12.76;75.13;100383.19;5069654;28;20028;-51
2021/10/08 09:27:38;;;;;;;16.65;7.55;;;;;;;12.56;75.34;100383.13;5069557;28;20023;-50
2021/10/08 09:30:04;;;;;;;19.63;8.88;;;;;;;12.64;75.94;100382.94;5069577;28;20056;-53
2021/10/08 09:32:30;;;;;;;15.20;7.78;;;;;;;12.82;74.38;100396.53;5071288;28;20067;-52
2021/10/08 09:35:07;;;;;;;20.05;9.02;;;;;;;13.06;74.24;100407.66;5054885;28;20024;-53
2021/10/08 09:37:32;;;;;;;19.33;8.80;;;;;;;12.80;75.08;100400.44;5073530;28;20020;-53
2021/10/08 09:39:58;;;;;;;51.03;27.80;;;;;;;12.69;75.76;100399.19;5074220;28;20372;-53
2021/10/08 09:42:23;;;;;;;16.70;8.75;;;;;;;12.80;75.08;100403.94;5067147;28;20020;-52
2021/10/08 09:44:50;;;;;;;12.88;7.57;;;;;;;12.55;75.98;100409.00;5035811;28;20040;-52
2021/10/08 09:47:21;;;;;;;17.45;7.50;;;;;;;12.48;76.29;100408.97;5053760;28;20428;-51
2021/10/08 09:49:51;;;;;;;19.00;8.20;;;;;;;12.79;75.60;100410.28;5054034;28;20377;-53
2021/10/08 09:52:27;;;;;;;16.33;7.57;;;;;;;12.76;74.89;100412.56;5055877;28;20025;-53
2021/10/08 09:54:59;;;;;;;17.80;7.65;;;;;;;12.60;75.56;100414.53;5073574;28;20032;-52
2021/10/08 09:57:25;;;;;;;14.52;7.63;;;;;;;12.79;74.51;100418.31;5073327;28;20532;-53
2021/10/08 09:59:51;;;;;;;17.90;8.10;;;;;;;12.96;74.38;100409.94;5073397;28;20021;-53
2021/10/08 10:02:17;;;;;;;13.85;6.88;;;;;;;12.67;74.08;100409.25;5059520;28;20492;-54
2021/10/08 10:04:46;;;;;;;17.75;8.02;;;;;;;12.30;75.66;100388.16;5053465;28;20035;-54
2021/10/08 10:07:16;;;;;;;16.85;7.70;;;;;;;12.45;75.56;100406.72;5053573;28;20017;-54
2021/10/08 10:09:42;;;;;;;13.75;7.32;;;;;;;12.27;76.30;100401.91;5053685;28;20022;-53
2021/10/08 10:12:07;;;;;;;19.02;8.10;;;;;;;12.62;74.85;100391.16;5053643;28;20021;-53
2021/10/08 10:14:33;;;;;;;16.77;8.93;;;;;;;12.55;77.83;100386.84;5054163;28;20147;-54
2021/10/08 10:16:59;;;;;;;14.82;7.65;;;;;;;12.24;76.80;100404.13;5053514;28;20491;-56
2021/10/08 10:19:25;;;;;;;15.73;7.68;;;;;;;12.03;77.39;100403.25;5053208;28;20155;-52
2021/10/08 10:21:50;;;;;;;22.70;7.95;;;;;;;12.28;77.47;100418.72;5051621;28;20021;-53
2021/10/08 10:24:16;;;;;;;17.85;8.10;;;;;;;12.10;77.88;100413.94;5051452;28;20511;-54
2021/10/08 10:26:42;;;;;;;15.77;8.23;;;;;;;12.24;78.29;100414.81;5034237;28;20025;-53
2021/10/08 10:29:08;;;;;;;15.60;7.70;;;;;;;12.65;75.50;100406.78;5056004;28;20027;-54
2021/10/08 10:31:35;;;;;;;15.32;8.68;;;;;;;12.50;76.07;100398.09;5060862;28;20496;-52
2021/10/08 10:34:01;;;;;;;16.00;7.57;;;;;;;12.19;76.82;100399.41;5042850;28;20179;-53
2021/10/08 10:36:28;;;;;;;16.15;8.15;;;;;;;12.65;76.15;100400.63;5053601;28;20343;-51
2021/10/08 10:39:15;;;;;;;21.80;8.10;;;;;;;12.75;75.52;100401.03;5052340;28;20063;-53
2021/10/08 10:41:42;;;;;;;18.20;8.13;;;;;;;12.85;74.59;100392.63;5052366;28;20025;-53
2021/10/08 10:44:15;;;;;;;15.38;7.70;;;;;;;12.75;75.51;100400.22;5052369;28;20032;-53
2021/10/08 10:47:03;;;;;;;16.83;7.82;;;;;;;12.62;76.18;100401.84;5052215;28;20025;-52
2021/10/08 10:49:41;;;;;;;20.50;8.52;;;;;;;13.18;74.09;100410.59;5052416;28;20048;-53
2021/10/08 10:52:17;;;;;;;17.13;8.00;;;;;;;12.67;75.57;100402.06;5052348;28;20025;-52
2021/10/08 10:54:52;;;;;;;18.52;8.27;;;;;;;12.94;75.40;100404.78;5050474;28;20518;-52
2021/10/08 10:57:30;;;;;;;18.95;7.30;;;;;;;12.94;74.50;100394.09;5051673;28;20043;-50
2021/10/08 11:00:27;;;;;;;14.13;7.10;;;;;;;13.09;73.33;100380.56;5051837;28;20071;-50
2021/10/08 11:03:13;;;;;;;14.20;6.75;;;;;;;13.04;74.09;100383.00;5051367;28;20021;-54
2021/10/08 11:05:41;;;;;;;17.83;6.75;;;;;;;13.08;73.71;100363.72;5051856;28;20060;-51
2021/10/08 11:08:11;;;;;;;14.70;6.10;;;;;;;13.02;73.90;100358.34;5049947;28;20056;-50
2021/10/08 11:10:38;;;;;;;12.57;6.60;;;;;;;13.21;73.58;100354.03;5051481;28;20059;-53
2021/10/08 11:13:26;;;;;;;15.25;6.35;;;;;;;12.90;75.06;100350.13;5051855;28;20025;-53
2021/10/08 11:16:11;;;;;;;18.98;7.38;;;;;;;13.14;74.31;100354.06;5052186;28;20088;-53
2021/10/08 11:18:50;;;;;;;14.73;6.28;;;;;;;13.40;72.82;100349.75;5052545;28;20094;-52
2021/10/08 11:21:25;;;;;;;20.45;7.95;;;;;;;13.35;72.89;100350.38;5052358;28;20100;-51
2021/10/08 11:23:50;;;;;;;37.83;17.75;;;;;;;13.49;72.74;100345.81;5052035;28;20079;-50